ARG1788 SABE-SARI
Flight info
| Callsign | ARG1788 |
|---|---|
| Flight time | 1h 28m |
| Altitude | 37000 |
| Route | LANDA4B LANDA UN785 GEMSU UT667 DOKBA |
| Aircraft | B38M/M-SDE1FGHILORVWXY/HB1 |
Departure
| Time | 2026-05-04 18:51 |
|---|---|
| Airport | Aeroparque Jorge Newbery (SABE) |
Arrival
| Time | 2026-05-04 20:20 |
|---|---|
| Airport | Cataratas Del Iguazú International Airport (SARI) |
| Time | Latitude | Longitude | Altitude | Speed | Heading |
|---|---|---|---|---|---|
| 2026-05-04 18:21 | -34.55802 | -58.41445 | 28 ft | 0 kts | 207° |
| 2026-05-04 18:38 | -34.55801 | -58.41445 | 55 ft | 0 kts | 207° |
| 2026-05-04 18:40 | -34.55781 | -58.41432 | 28 ft | 4 kts | 209° |
| 2026-05-04 18:40 | -34.55765 | -58.41417 | 28 ft | 4 kts | 271° |
| 2026-05-04 18:40 | -34.55774 | -58.41397 | 28 ft | 4 kts | 304° |
| 2026-05-04 18:40 | -34.55781 | -58.41385 | 28 ft | 0 kts | 304° |
| 2026-05-04 18:44 | -34.55780 | -58.41387 | 28 ft | 1 kts | 304° |
| 2026-05-04 18:45 | -34.55755 | -58.41432 | 28 ft | 12 kts | 303° |
| 2026-05-04 18:45 | -34.55729 | -58.41487 | 28 ft | 0 kts | 296° |
| 2026-05-04 18:45 | -34.55726 | -58.41494 | 28 ft | 4 kts | 296° |
| 2026-05-04 18:45 | -34.55736 | -58.41561 | 28 ft | 12 kts | 222° |
| 2026-05-04 18:46 | -34.55811 | -58.41568 | 28 ft | 11 kts | 123° |
| 2026-05-04 18:46 | -34.55853 | -58.41473 | 28 ft | 14 kts | 117° |
| 2026-05-04 18:46 | -34.55900 | -58.41360 | 28 ft | 16 kts | 117° |
| 2026-05-04 18:46 | -34.55965 | -58.41235 | 28 ft | 19 kts | 127° |
| 2026-05-04 18:47 | -34.56048 | -58.41102 | 28 ft | 21 kts | 127° |
| 2026-05-04 18:47 | -34.56139 | -58.40954 | 28 ft | 23 kts | 121° |
| 2026-05-04 18:47 | -34.56191 | -58.40797 | 28 ft | 20 kts | 122° |
| 2026-05-04 18:47 | -34.56272 | -58.40649 | 28 ft | 22 kts | 124° |
| 2026-05-04 18:48 | -34.56381 | -58.40507 | 28 ft | 24 kts | 139° |
| 2026-05-04 18:48 | -34.56423 | -58.40460 | 28 ft | 0 kts | 137° |
| 2026-05-04 18:50 | -34.56428 | -58.40454 | 28 ft | 3 kts | 137° |
| 2026-05-04 18:50 | -34.56484 | -58.40394 | 28 ft | 18 kts | 146° |
| 2026-05-04 18:50 | -34.56548 | -58.40461 | 28 ft | 15 kts | 307° |
| 2026-05-04 18:50 | -34.56522 | -58.40508 | 28 ft | 1 kts | 304° |
| 2026-05-04 18:51 | -34.56453 | -58.40632 | 28 ft | 52 kts | 304° |
| 2026-05-04 18:51 | -34.56107 | -58.41252 | 28 ft | 122 kts | 304° |
| 2026-05-04 18:51 | -34.55528 | -58.42290 | 114 ft | 167 kts | 304° |
| 2026-05-04 18:51 | -34.54909 | -58.43451 | 880 ft | 165 kts | 304° |
| 2026-05-04 18:52 | -34.54259 | -58.44618 | 1512 ft | 175 kts | 311° |
| 2026-05-04 18:52 | -34.53181 | -58.45490 | 1840 ft | 205 kts | 345° |
| 2026-05-04 18:52 | -34.51676 | -58.45306 | 2247 ft | 237 kts | 23° |
| 2026-05-04 18:52 | -34.50306 | -58.44208 | 3247 ft | 235 kts | 28° |
| 2026-05-04 18:53 | -34.48871 | -58.43179 | 3996 ft | 242 kts | 19° |
| 2026-05-04 18:53 | -34.47215 | -58.42745 | 4690 ft | 249 kts | 355° |
| 2026-05-04 18:53 | -34.45462 | -58.43008 | 5354 ft | 259 kts | 349° |
| 2026-05-04 18:53 | -34.43660 | -58.43287 | 6274 ft | 262 kts | 349° |
| 2026-05-04 18:54 | -34.41839 | -58.43547 | 7115 ft | 266 kts | 350° |
| 2026-05-04 18:54 | -34.39988 | -58.43801 | 7892 ft | 272 kts | 350° |
| 2026-05-04 18:54 | -34.38112 | -58.44051 | 8654 ft | 279 kts | 351° |
| 2026-05-04 18:54 | -34.36160 | -58.44306 | 9424 ft | 285 kts | 351° |
| 2026-05-04 18:55 | -34.34163 | -58.44566 | 10144 ft | 293 kts | 351° |
| 2026-05-04 18:55 | -34.29903 | -58.45113 | 11175 ft | 321 kts | 350° |
| 2026-05-04 18:55 | -34.27671 | -58.45397 | 11972 ft | 323 kts | 349° |
| 2026-05-04 18:56 | -34.25422 | -58.45685 | 12818 ft | 327 kts | 348° |
| 2026-05-04 18:56 | -34.23148 | -58.45976 | 13642 ft | 331 kts | 347° |
| 2026-05-04 18:56 | -34.20845 | -58.46270 | 14429 ft | 335 kts | 347° |
| 2026-05-04 18:56 | -34.18506 | -58.46569 | 15189 ft | 340 kts | 347° |
| 2026-05-04 18:57 | -34.16138 | -58.46872 | 15932 ft | 345 kts | 346° |
| 2026-05-04 18:57 | -34.13728 | -58.47179 | 16647 ft | 351 kts | 346° |
| 2026-05-04 18:57 | -34.11284 | -58.47491 | 17367 ft | 356 kts | 346° |
| 2026-05-04 18:57 | -34.08804 | -58.47808 | 18070 ft | 361 kts | 346° |
| 2026-05-04 18:58 | -34.06286 | -58.48130 | 18675 ft | 366 kts | 346° |
| 2026-05-04 18:58 | -34.03741 | -58.48454 | 19267 ft | 371 kts | 346° |
| 2026-05-04 18:58 | -34.01168 | -58.48782 | 19885 ft | 374 kts | 346° |
| 2026-05-04 18:58 | -33.98563 | -58.49114 | 20501 ft | 378 kts | 346° |
| 2026-05-04 18:59 | -33.95966 | -58.49445 | 21086 ft | 381 kts | 346° |
| 2026-05-04 18:59 | -33.93310 | -58.49783 | 21677 ft | 385 kts | 346° |
| 2026-05-04 18:59 | -33.90631 | -58.50124 | 22268 ft | 388 kts | 346° |
| 2026-05-04 18:59 | -33.87931 | -58.50467 | 22837 ft | 392 kts | 346° |
| 2026-05-04 19:00 | -33.85204 | -58.50814 | 23410 ft | 396 kts | 346° |
| 2026-05-04 19:00 | -33.82437 | -58.51046 | 23880 ft | 406 kts | 355° |
| 2026-05-04 19:00 | -33.79618 | -58.50442 | 24422 ft | 418 kts | 8° |
| 2026-05-04 19:00 | -33.76784 | -58.49654 | 24852 ft | 420 kts | 5° |
| 2026-05-04 19:01 | -33.73907 | -58.48943 | 25299 ft | 423 kts | 4° |
| 2026-05-04 19:01 | -33.71013 | -58.48243 | 25763 ft | 425 kts | 4° |
| 2026-05-04 19:01 | -33.68092 | -58.47543 | 26203 ft | 429 kts | 4° |
| 2026-05-04 19:01 | -33.65161 | -58.46844 | 26631 ft | 432 kts | 4° |
| 2026-05-04 19:02 | -33.62235 | -58.46148 | 27051 ft | 435 kts | 4° |
| 2026-05-04 19:02 | -33.59256 | -58.45439 | 27455 ft | 438 kts | 4° |
| 2026-05-04 19:02 | -33.56267 | -58.44728 | 27871 ft | 441 kts | 4° |
| 2026-05-04 19:02 | -33.53245 | -58.44011 | 28284 ft | 444 kts | 5° |
| 2026-05-04 19:03 | -33.50202 | -58.43289 | 28694 ft | 447 kts | 5° |
| 2026-05-04 19:03 | -33.47136 | -58.42562 | 29095 ft | 450 kts | 5° |
| 2026-05-04 19:03 | -33.44054 | -58.41831 | 29496 ft | 453 kts | 5° |
| 2026-05-04 19:03 | -33.40948 | -58.41096 | 29893 ft | 456 kts | 5° |
| 2026-05-04 19:04 | -33.37815 | -58.40354 | 30219 ft | 459 kts | 5° |
| 2026-05-04 19:04 | -33.34674 | -58.39612 | 30533 ft | 461 kts | 4° |
| 2026-05-04 19:04 | -33.31527 | -58.38868 | 30882 ft | 463 kts | 4° |
| 2026-05-04 19:04 | -33.28352 | -58.38119 | 31187 ft | 466 kts | 4° |
| 2026-05-04 19:05 | -33.25160 | -58.37366 | 31503 ft | 469 kts | 4° |
| 2026-05-04 19:05 | -33.21990 | -58.36618 | 31819 ft | 471 kts | 4° |
| 2026-05-04 19:05 | -33.18763 | -58.35858 | 32136 ft | 473 kts | 4° |
| 2026-05-04 19:05 | -33.15521 | -58.35095 | 32449 ft | 476 kts | 4° |
| 2026-05-04 19:06 | -33.12264 | -58.34328 | 32733 ft | 478 kts | 4° |
| 2026-05-04 19:06 | -33.08986 | -58.33557 | 33050 ft | 481 kts | 4° |
| 2026-05-04 19:06 | -33.05712 | -58.32789 | 33360 ft | 483 kts | 4° |
| 2026-05-04 19:06 | -33.02402 | -58.32012 | 33658 ft | 485 kts | 4° |
| 2026-05-04 19:07 | -32.99073 | -58.31231 | 33951 ft | 488 kts | 4° |
| 2026-05-04 19:07 | -32.95729 | -58.30447 | 34229 ft | 489 kts | 4° |
| 2026-05-04 19:07 | -32.92392 | -58.29665 | 34575 ft | 489 kts | 4° |
| 2026-05-04 19:07 | -32.89053 | -58.28883 | 34918 ft | 488 kts | 3° |
| 2026-05-04 19:08 | -32.85756 | -58.28111 | 35246 ft | 487 kts | 4° |
| 2026-05-04 19:08 | -32.82445 | -58.27338 | 35638 ft | 485 kts | 3° |
| 2026-05-04 19:08 | -32.79138 | -58.26566 | 35985 ft | 484 kts | 3° |
| 2026-05-04 19:08 | -32.75836 | -58.25795 | 36308 ft | 483 kts | 3° |
| 2026-05-04 19:09 | -32.72539 | -58.25026 | 36632 ft | 482 kts | 3° |
| 2026-05-04 19:09 | -32.69247 | -58.24259 | 36907 ft | 482 kts | 3° |
| 2026-05-04 19:09 | -32.62667 | -58.22728 | 36888 ft | 479 kts | 3° |
| 2026-05-04 19:10 | -32.56134 | -58.21210 | 36931 ft | 478 kts | 3° |
| 2026-05-04 19:10 | -32.49616 | -58.19698 | 36929 ft | 477 kts | 3° |
| 2026-05-04 19:11 | -32.43078 | -58.18184 | 36929 ft | 479 kts | 3° |
| 2026-05-04 19:11 | -32.36536 | -58.16670 | 36908 ft | 478 kts | 3° |
| 2026-05-04 19:12 | -32.26794 | -58.14421 | 36925 ft | 477 kts | 3° |
| 2026-05-04 19:13 | -32.20315 | -58.12928 | 36923 ft | 477 kts | 3° |
| 2026-05-04 19:13 | -32.13748 | -58.11417 | 36927 ft | 477 kts | 3° |
| 2026-05-04 19:14 | -32.07235 | -58.09920 | 36930 ft | 477 kts | 3° |
| 2026-05-04 19:14 | -32.00711 | -58.08423 | 36929 ft | 477 kts | 3° |
| 2026-05-04 19:15 | -31.94233 | -58.06939 | 36926 ft | 477 kts | 3° |
| 2026-05-04 19:15 | -31.87710 | -58.05446 | 36910 ft | 477 kts | 3° |
| 2026-05-04 19:16 | -31.81199 | -58.03959 | 36933 ft | 477 kts | 3° |
| 2026-05-04 19:16 | -31.74687 | -58.02473 | 36934 ft | 477 kts | 3° |
| 2026-05-04 19:17 | -31.68167 | -58.00988 | 36931 ft | 477 kts | 3° |
| 2026-05-04 19:17 | -31.61653 | -57.99506 | 36915 ft | 476 kts | 3° |
| 2026-05-04 19:18 | -31.55146 | -57.98028 | 36945 ft | 477 kts | 3° |
| 2026-05-04 19:18 | -31.48639 | -57.96552 | 36933 ft | 476 kts | 3° |
| 2026-05-04 19:19 | -31.42118 | -57.95075 | 36947 ft | 477 kts | 3° |
| 2026-05-04 19:19 | -31.35650 | -57.93612 | 36936 ft | 477 kts | 3° |
| 2026-05-04 19:20 | -31.29138 | -57.92141 | 36943 ft | 477 kts | 4° |
| 2026-05-04 19:20 | -31.22612 | -57.90669 | 36937 ft | 477 kts | 4° |
| 2026-05-04 19:21 | -31.16087 | -57.89199 | 36934 ft | 477 kts | 3° |
| 2026-05-04 19:21 | -31.09574 | -57.87734 | 36927 ft | 478 kts | 4° |
| 2026-05-04 19:22 | -31.03038 | -57.86266 | 36929 ft | 478 kts | 4° |
| 2026-05-04 19:22 | -30.96501 | -57.84800 | 36932 ft | 478 kts | 4° |
| 2026-05-04 19:23 | -30.89969 | -57.83337 | 36930 ft | 478 kts | 4° |
| 2026-05-04 19:23 | -30.83481 | -57.81886 | 36931 ft | 478 kts | 4° |
| 2026-05-04 19:24 | -30.76932 | -57.80423 | 36929 ft | 478 kts | 4° |
| 2026-05-04 19:24 | -30.70394 | -57.78960 | 36935 ft | 479 kts | 5° |
| 2026-05-04 19:25 | -30.63926 | -57.76826 | 36949 ft | 485 kts | 10° |
| 2026-05-04 19:25 | -30.57464 | -57.74569 | 36938 ft | 486 kts | 10° |
| 2026-05-04 19:26 | -30.50984 | -57.72305 | 36933 ft | 486 kts | 10° |
| 2026-05-04 19:26 | -30.44526 | -57.70051 | 36936 ft | 486 kts | 10° |
| 2026-05-04 19:27 | -30.38062 | -57.67798 | 36933 ft | 486 kts | 10° |
| 2026-05-04 19:27 | -30.31626 | -57.65557 | 36942 ft | 487 kts | 10° |
| 2026-05-04 19:28 | -30.25303 | -57.62639 | 36915 ft | 499 kts | 30° |
| 2026-05-04 19:28 | -30.19527 | -57.58111 | 36913 ft | 502 kts | 30° |
| 2026-05-04 19:29 | -30.13750 | -57.53542 | 36951 ft | 503 kts | 30° |
| 2026-05-04 19:29 | -30.07980 | -57.48957 | 36952 ft | 503 kts | 30° |
| 2026-05-04 19:30 | -30.02210 | -57.44378 | 36949 ft | 503 kts | 30° |
| 2026-05-04 19:30 | -29.96434 | -57.39801 | 36951 ft | 504 kts | 30° |
| 2026-05-04 19:31 | -29.90651 | -57.35225 | 36951 ft | 504 kts | 30° |
| 2026-05-04 19:31 | -29.84866 | -57.30653 | 36947 ft | 504 kts | 30° |
| 2026-05-04 19:32 | -29.79113 | -57.26113 | 36960 ft | 504 kts | 30° |
| 2026-05-04 19:32 | -29.73340 | -57.21565 | 36940 ft | 504 kts | 30° |
| 2026-05-04 19:33 | -29.67540 | -57.17001 | 36965 ft | 505 kts | 30° |
| 2026-05-04 19:33 | -29.62725 | -57.13217 | 36967 ft | 504 kts | 30° |
| 2026-05-04 19:34 | -29.56931 | -57.08671 | 36961 ft | 505 kts | 30° |
| 2026-05-04 19:34 | -29.51118 | -57.04115 | 36953 ft | 505 kts | 30° |
| 2026-05-04 19:35 | -29.45313 | -56.99572 | 36955 ft | 505 kts | 30° |
| 2026-05-04 19:35 | -29.39551 | -56.95069 | 36954 ft | 504 kts | 30° |
| 2026-05-04 19:36 | -29.33751 | -56.90543 | 36954 ft | 505 kts | 30° |
| 2026-05-04 19:36 | -29.27951 | -56.86023 | 36951 ft | 504 kts | 30° |
| 2026-05-04 19:37 | -29.22145 | -56.81505 | 36956 ft | 505 kts | 30° |
| 2026-05-04 19:37 | -29.16326 | -56.76982 | 36954 ft | 505 kts | 30° |
| 2026-05-04 19:38 | -29.10561 | -56.72509 | 36946 ft | 505 kts | 30° |
| 2026-05-04 19:38 | -29.04736 | -56.67995 | 36950 ft | 505 kts | 30° |
| 2026-05-04 19:39 | -28.98907 | -56.63483 | 36954 ft | 505 kts | 30° |
| 2026-05-04 19:39 | -28.93086 | -56.58984 | 36952 ft | 505 kts | 30° |
| 2026-05-04 19:40 | -28.87311 | -56.54527 | 36951 ft | 505 kts | 30° |
| 2026-05-04 19:40 | -28.81486 | -56.50039 | 36926 ft | 505 kts | 30° |
| 2026-05-04 19:41 | -28.75663 | -56.45557 | 36955 ft | 506 kts | 30° |
| 2026-05-04 19:41 | -28.69834 | -56.41078 | 36954 ft | 505 kts | 30° |
| 2026-05-04 19:42 | -28.64003 | -56.36602 | 36946 ft | 506 kts | 30° |
| 2026-05-04 19:42 | -28.58155 | -56.32119 | 36951 ft | 506 kts | 29° |
| 2026-05-04 19:43 | -28.52353 | -56.27678 | 36951 ft | 505 kts | 30° |
| 2026-05-04 19:43 | -28.46525 | -56.23224 | 36953 ft | 506 kts | 30° |
| 2026-05-04 19:44 | -28.40681 | -56.18763 | 36950 ft | 505 kts | 30° |
| 2026-05-04 19:44 | -28.34840 | -56.14310 | 36949 ft | 505 kts | 29° |
| 2026-05-04 19:45 | -28.29007 | -56.09869 | 36954 ft | 505 kts | 29° |
| 2026-05-04 19:45 | -28.23199 | -56.05454 | 36952 ft | 505 kts | 29° |
| 2026-05-04 19:46 | -28.17355 | -56.01016 | 36942 ft | 506 kts | 29° |
| 2026-05-04 19:46 | -28.11491 | -55.96570 | 36959 ft | 507 kts | 29° |
| 2026-05-04 19:47 | -28.05620 | -55.92124 | 36951 ft | 507 kts | 29° |
| 2026-05-04 19:47 | -27.99753 | -55.87687 | 36961 ft | 507 kts | 29° |
| 2026-05-04 19:48 | -27.93926 | -55.83287 | 36960 ft | 507 kts | 29° |
| 2026-05-04 19:48 | -27.88067 | -55.78868 | 36946 ft | 507 kts | 29° |
| 2026-05-04 19:49 | -27.82198 | -55.74447 | 36963 ft | 509 kts | 29° |
| 2026-05-04 19:49 | -27.76306 | -55.70014 | 36961 ft | 508 kts | 29° |
| 2026-05-04 19:50 | -27.70420 | -55.65592 | 36964 ft | 508 kts | 29° |
| 2026-05-04 19:50 | -27.64530 | -55.61172 | 36962 ft | 508 kts | 29° |
| 2026-05-04 19:51 | -27.58637 | -55.56757 | 36961 ft | 508 kts | 29° |
| 2026-05-04 19:51 | -27.52828 | -55.52409 | 36535 ft | 493 kts | 29° |
| 2026-05-04 19:51 | -27.49970 | -55.50270 | 36014 ft | 491 kts | 29° |
| 2026-05-04 19:52 | -27.47127 | -55.48147 | 35449 ft | 490 kts | 30° |
| 2026-05-04 19:52 | -27.44304 | -55.46039 | 34956 ft | 488 kts | 30° |
| 2026-05-04 19:52 | -27.41483 | -55.43933 | 34485 ft | 485 kts | 30° |
| 2026-05-04 19:52 | -27.38706 | -55.41861 | 34001 ft | 482 kts | 30° |
| 2026-05-04 19:53 | -27.35940 | -55.39799 | 33404 ft | 472 kts | 30° |
| 2026-05-04 19:53 | -27.33229 | -55.37780 | 32900 ft | 461 kts | 30° |
| 2026-05-04 19:53 | -27.30595 | -55.35818 | 32490 ft | 449 kts | 30° |
| 2026-05-04 19:53 | -27.28006 | -55.33892 | 32121 ft | 444 kts | 30° |
| 2026-05-04 19:54 | -27.25455 | -55.31995 | 31670 ft | 442 kts | 30° |
| 2026-05-04 19:54 | -27.22882 | -55.30083 | 31204 ft | 440 kts | 30° |
| 2026-05-04 19:54 | -27.20333 | -55.28189 | 30762 ft | 439 kts | 30° |
| 2026-05-04 19:54 | -27.17792 | -55.26302 | 30347 ft | 437 kts | 31° |
| 2026-05-04 19:55 | -27.15290 | -55.24445 | 29898 ft | 435 kts | 31° |
| 2026-05-04 19:55 | -27.12766 | -55.22574 | 29420 ft | 433 kts | 31° |
| 2026-05-04 19:55 | -27.10264 | -55.20720 | 28989 ft | 430 kts | 31° |
| 2026-05-04 19:55 | -27.07779 | -55.18879 | 28591 ft | 426 kts | 31° |
| 2026-05-04 19:56 | -27.05312 | -55.17052 | 28196 ft | 423 kts | 31° |
| 2026-05-04 19:56 | -27.02873 | -55.15247 | 27803 ft | 420 kts | 31° |
| 2026-05-04 19:56 | -27.00441 | -55.13448 | 27409 ft | 417 kts | 31° |
| 2026-05-04 19:56 | -26.98026 | -55.11663 | 27018 ft | 414 kts | 31° |
| 2026-05-04 19:57 | -26.95623 | -55.09887 | 26637 ft | 412 kts | 31° |
| 2026-05-04 19:57 | -26.93264 | -55.08145 | 26259 ft | 410 kts | 31° |
| 2026-05-04 19:57 | -26.90884 | -55.06388 | 25881 ft | 407 kts | 31° |
| 2026-05-04 19:57 | -26.88523 | -55.04646 | 25504 ft | 406 kts | 31° |
| 2026-05-04 19:58 | -26.86171 | -55.02912 | 25123 ft | 404 kts | 31° |
| 2026-05-04 19:58 | -26.83828 | -55.01185 | 24755 ft | 402 kts | 31° |
| 2026-05-04 19:58 | -26.81503 | -54.99473 | 24384 ft | 401 kts | 31° |
| 2026-05-04 19:58 | -26.79174 | -54.97758 | 24011 ft | 400 kts | 31° |
| 2026-05-04 19:59 | -26.76861 | -54.96055 | 23635 ft | 395 kts | 31° |
| 2026-05-04 19:59 | -26.74585 | -54.94381 | 23220 ft | 388 kts | 31° |
| 2026-05-04 19:59 | -26.72355 | -54.92742 | 22843 ft | 380 kts | 31° |
| 2026-05-04 19:59 | -26.70156 | -54.91127 | 22485 ft | 376 kts | 31° |
| 2026-05-04 20:00 | -26.67974 | -54.89524 | 22139 ft | 374 kts | 31° |
| 2026-05-04 20:00 | -26.65833 | -54.87952 | 21794 ft | 372 kts | 31° |
| 2026-05-04 20:00 | -26.63680 | -54.86371 | 21443 ft | 369 kts | 31° |
| 2026-05-04 20:00 | -26.61545 | -54.84805 | 21105 ft | 367 kts | 31° |
| 2026-05-04 20:01 | -26.59415 | -54.83243 | 20766 ft | 365 kts | 31° |
| 2026-05-04 20:01 | -26.57365 | -54.81562 | 20376 ft | 366 kts | 44° |
| 2026-05-04 20:01 | -26.55821 | -54.79303 | 19997 ft | 366 kts | 57° |
| 2026-05-04 20:01 | -26.54409 | -54.76948 | 19679 ft | 364 kts | 55° |
| 2026-05-04 20:02 | -26.53000 | -54.74605 | 19354 ft | 362 kts | 55° |
| 2026-05-04 20:02 | -26.51605 | -54.72270 | 19011 ft | 361 kts | 55° |
| 2026-05-04 20:02 | -26.50235 | -54.69971 | 18675 ft | 360 kts | 55° |
| 2026-05-04 20:02 | -26.48834 | -54.67617 | 18333 ft | 359 kts | 55° |
| 2026-05-04 20:03 | -26.47472 | -54.65326 | 17948 ft | 358 kts | 55° |
| 2026-05-04 20:03 | -26.46097 | -54.63017 | 17597 ft | 356 kts | 55° |
| 2026-05-04 20:03 | -26.44731 | -54.60723 | 17256 ft | 354 kts | 55° |
| 2026-05-04 20:03 | -26.43371 | -54.58439 | 16908 ft | 352 kts | 55° |
| 2026-05-04 20:04 | -26.42017 | -54.56169 | 16577 ft | 350 kts | 55° |
| 2026-05-04 20:04 | -26.40675 | -54.53919 | 16246 ft | 347 kts | 55° |
| 2026-05-04 20:04 | -26.39338 | -54.51677 | 15914 ft | 345 kts | 55° |
| 2026-05-04 20:04 | -26.38027 | -54.49482 | 15585 ft | 344 kts | 55° |
| 2026-05-04 20:05 | -26.36706 | -54.47270 | 15254 ft | 342 kts | 55° |
| 2026-05-04 20:05 | -26.35391 | -54.45068 | 14922 ft | 340 kts | 55° |
| 2026-05-04 20:05 | -26.34082 | -54.42880 | 14594 ft | 339 kts | 55° |
| 2026-05-04 20:05 | -26.32780 | -54.40702 | 14263 ft | 337 kts | 55° |
| 2026-05-04 20:06 | -26.31482 | -54.38533 | 13931 ft | 336 kts | 55° |
| 2026-05-04 20:06 | -26.30191 | -54.36376 | 13564 ft | 331 kts | 55° |
| 2026-05-04 20:06 | -26.28924 | -54.34262 | 13216 ft | 325 kts | 54° |
| 2026-05-04 20:06 | -26.27682 | -54.32190 | 12890 ft | 318 kts | 54° |
| 2026-05-04 20:07 | -26.26467 | -54.30162 | 12575 ft | 311 kts | 54° |
| 2026-05-04 20:07 | -26.25275 | -54.28176 | 12271 ft | 306 kts | 54° |
| 2026-05-04 20:07 | -26.24105 | -54.26226 | 11979 ft | 304 kts | 54° |
| 2026-05-04 20:07 | -26.22934 | -54.24275 | 11666 ft | 302 kts | 53° |
| 2026-05-04 20:08 | -26.21771 | -54.22338 | 11377 ft | 300 kts | 53° |
| 2026-05-04 20:08 | -26.20609 | -54.20405 | 11073 ft | 299 kts | 53° |
| 2026-05-04 20:08 | -26.19455 | -54.18483 | 10769 ft | 298 kts | 53° |
| 2026-05-04 20:08 | -26.18306 | -54.16572 | 10466 ft | 297 kts | 53° |
| 2026-05-04 20:09 | -26.17158 | -54.14664 | 10157 ft | 296 kts | 53° |
| 2026-05-04 20:09 | -26.15989 | -54.12785 | 9858 ft | 293 kts | 46° |
| 2026-05-04 20:09 | -26.14409 | -54.11426 | 9449 ft | 286 kts | 20° |
| 2026-05-04 20:09 | -26.12511 | -54.10975 | 9119 ft | 276 kts | 355° |
| 2026-05-04 20:10 | -26.10659 | -54.11337 | 8824 ft | 267 kts | 342° |
| 2026-05-04 20:10 | -26.08892 | -54.11887 | 8545 ft | 261 kts | 341° |
| 2026-05-04 20:10 | -26.07168 | -54.12454 | 8260 ft | 255 kts | 341° |
| 2026-05-04 20:10 | -26.05491 | -54.13027 | 7985 ft | 250 kts | 340° |
| 2026-05-04 20:11 | -26.03845 | -54.13601 | 7708 ft | 247 kts | 340° |
| 2026-05-04 20:11 | -26.02215 | -54.14174 | 7454 ft | 245 kts | 340° |
| 2026-05-04 20:11 | -26.00593 | -54.14748 | 7172 ft | 244 kts | 340° |
| 2026-05-04 20:11 | -25.98973 | -54.15324 | 6900 ft | 243 kts | 340° |
| 2026-05-04 20:12 | -25.97368 | -54.15899 | 6638 ft | 242 kts | 340° |
| 2026-05-04 20:12 | -25.95766 | -54.16472 | 6366 ft | 241 kts | 340° |
| 2026-05-04 20:12 | -25.94198 | -54.17033 | 6088 ft | 239 kts | 340° |
| 2026-05-04 20:12 | -25.92624 | -54.17597 | 5819 ft | 238 kts | 340° |
| 2026-05-04 20:13 | -25.91056 | -54.18159 | 5542 ft | 236 kts | 340° |
| 2026-05-04 20:13 | -25.89513 | -54.18712 | 5401 ft | 229 kts | 340° |
| 2026-05-04 20:13 | -25.88021 | -54.19246 | 5272 ft | 221 kts | 340° |
| 2026-05-04 20:13 | -25.86580 | -54.19761 | 5159 ft | 214 kts | 340° |
| 2026-05-04 20:14 | -25.85311 | -54.20538 | 4959 ft | 207 kts | 314° |
| 2026-05-04 20:14 | -25.84529 | -54.21855 | 4831 ft | 200 kts | 299° |
| 2026-05-04 20:14 | -25.83911 | -54.23198 | 4730 ft | 191 kts | 299° |
| 2026-05-04 20:14 | -25.83330 | -54.24499 | 4604 ft | 186 kts | 299° |
| 2026-05-04 20:15 | -25.82770 | -54.25781 | 4476 ft | 181 kts | 298° |
| 2026-05-04 20:15 | -25.82236 | -54.27019 | 4362 ft | 176 kts | 298° |
| 2026-05-04 20:15 | -25.81732 | -54.28219 | 4227 ft | 169 kts | 297° |
| 2026-05-04 20:15 | -25.81256 | -54.29400 | 3993 ft | 166 kts | 298° |
| 2026-05-04 20:16 | -25.80792 | -54.30535 | 3786 ft | 162 kts | 298° |
| 2026-05-04 20:16 | -25.80322 | -54.31671 | 3596 ft | 162 kts | 298° |
| 2026-05-04 20:16 | -25.79855 | -54.32792 | 3388 ft | 157 kts | 300° |
| 2026-05-04 20:16 | -25.79404 | -54.33873 | 3183 ft | 152 kts | 301° |
| 2026-05-04 20:17 | -25.78956 | -54.34938 | 2993 ft | 152 kts | 301° |
| 2026-05-04 20:17 | -25.78517 | -54.35979 | 2817 ft | 147 kts | 300° |
| 2026-05-04 20:17 | -25.78092 | -54.36992 | 2623 ft | 144 kts | 300° |
| 2026-05-04 20:17 | -25.77666 | -54.38003 | 2459 ft | 145 kts | 299° |
| 2026-05-04 20:18 | -25.77236 | -54.39026 | 2261 ft | 146 kts | 299° |
| 2026-05-04 20:18 | -25.76807 | -54.40041 | 2067 ft | 146 kts | 300° |
| 2026-05-04 20:18 | -25.76376 | -54.41062 | 1870 ft | 146 kts | 298° |
| 2026-05-04 20:18 | -25.75947 | -54.42094 | 1691 ft | 148 kts | 297° |
| 2026-05-04 20:19 | -25.75511 | -54.43135 | 1526 ft | 150 kts | 299° |
| 2026-05-04 20:19 | -25.75071 | -54.44171 | 1346 ft | 149 kts | 297° |
| 2026-05-04 20:19 | -25.74641 | -54.45204 | 1075 ft | 147 kts | 298° |
| 2026-05-04 20:19 | -25.74192 | -54.46241 | 952 ft | 142 kts | 297° |
| 2026-05-04 20:20 | -25.73834 | -54.47088 | 931 ft | 100 kts | 294° |
| 2026-05-04 20:20 | -25.73587 | -54.47683 | 931 ft | 61 kts | 294° |
| 2026-05-04 20:20 | -25.73448 | -54.47990 | 933 ft | 34 kts | 316° |
| 2026-05-04 20:20 | -25.73315 | -54.48102 | 931 ft | 19 kts | 337° |
| 2026-05-04 20:21 | -25.73234 | -54.48018 | 931 ft | 20 kts | 86° |
| 2026-05-04 20:21 | -25.73224 | -54.47914 | 931 ft | 14 kts | 87° |
| 2026-05-04 20:21 | -25.73221 | -54.47850 | 929 ft | 16 kts | 86° |
| 2026-05-04 20:22 | -25.73245 | -54.47756 | 932 ft | 8 kts | 117° |
| 2026-05-04 20:22 | -25.73250 | -54.47744 | 932 ft | 2 kts | 106° |
| 2026-05-04 20:22 | -25.73249 | -54.47737 | 932 ft | 2 kts | 77° |
| 2026-05-04 20:22 | -25.73215 | -54.47712 | 930 ft | 0 kts | 26° |
| 2026-05-04 20:23 | -25.73212 | -54.47710 | 930 ft | 0 kts | 26° |